Time,TemperatureF,DewpointF,PressureIn,WindDirection,WindDirectionDegrees,WindSpeedMPH,WindSpeedGustMPH,Humidity,HourlyPrecipIn,Conditions,Clouds,dailyrainin,SoftwareType,DateUTC
2013-10-30 00:05:00,41.5,39.6,30.22,SSE,164,0.0,6.0,93,0.00,,,0.00,Wunderground v.1.15,2013-10-30 04:05:00,
2013-10-30 00:10:00,41.5,39.6,30.21,SSE,164,0.0,6.0,93,0.00,,,0.00,Wunderground v.1.15,2013-10-30 04:10:00,
2013-10-30 00:15:00,41.5,39.6,30.22,SSE,164,0.0,6.0,93,0.00,,,0.00,Wunderground v.1.15,2013-10-30 04:15:00,
2013-10-30 00:20:00,41.5,39.6,30.21,SSE,164,0.0,6.0,93,0.00,,,0.00,Wunderground v.1.15,2013-10-30 04:20:00,
2013-10-30 00:25:00,41.6,39.7,30.21,SSE,164,0.0,6.0,93,0.00,,,0.00,Wunderground v.1.15,2013-10-30 04:25:00,
2013-10-30 00:35:00,41.7,40.1,30.21,SSE,164,0.0,6.0,94,0.00,,,0.00,Wunderground v.1.15,2013-10-30 04:35:00,
2013-10-30 00:40:00,41.7,40.1,30.21,SSE,164,0.0,6.0,94,0.00,,,0.00,Wunderground v.1.15,2013-10-30 04:40:00,
2013-10-30 00:45:00,41.8,40.2,30.20,SSE,164,0.0,6.0,94,0.00,,,0.00,Wunderground v.1.15,2013-10-30 04:45:00,
2013-10-30 00:50:00,41.8,40.2,30.21,SSE,164,0.0,6.0,94,0.00,,,0.00,Wunderground v.1.15,2013-10-30 04:50:00,
2013-10-30 00:55:00,41.9,40.3,30.21,SSE,164,0.0,6.0,94,0.00,,,0.00,Wunderground v.1.15,2013-10-30 04:55:00,
2013-10-30 01:05:00,42.0,40.4,30.21,SSE,164,0.0,6.0,94,0.00,,,0.00,Wunderground v.1.15,2013-10-30 05:05:00,
2013-10-30 01:10:00,41.9,40.3,30.20,SSE,164,0.0,6.0,94,0.00,,,0.00,Wunderground v.1.15,2013-10-30 05:10:00,
2013-10-30 01:15:00,41.9,40.3,30.20,SSE,164,0.0,6.0,94,0.00,,,0.00,Wunderground v.1.15,2013-10-30 05:15:00,
2013-10-30 01:20:00,41.9,40.3,30.20,SSE,164,0.0,6.0,94,0.00,,,0.00,Wunderground v.1.15,2013-10-30 05:20:00,
2013-10-30 01:25:00,42.0,40.4,30.20,SSE,164,0.0,6.0,94,0.00,,,0.00,Wunderground v.1.15,2013-10-30 05:25:00,
2013-10-30 01:30:00,42.0,40.4,30.20,SSE,164,0.0,6.0,94,0.00,,,0.00,Wunderground v.1.15,2013-10-30 05:30:00,
2013-10-30 01:40:00,42.2,40.6,30.19,SSE,164,0.0,6.0,94,0.00,,,0.00,Wunderground v.1.15,2013-10-30 05:40:00,
2013-10-30 01:45:00,42.3,40.7,30.19,SSE,164,0.0,6.0,94,0.00,,,0.00,Wunderground v.1.15,2013-10-30 05:45:00,
2013-10-30 01:55:00,42.5,40.9,30.19,SSE,164,0.0,6.0,94,0.00,,,0.00,Wunderground v.1.15,2013-10-30 05:55:00,
2013-10-30 02:00:00,42.6,41.0,30.18,SSE,164,0.0,6.0,94,0.00,,,0.00,Wunderground v.1.15,2013-10-30 06:00:00,
2013-10-30 02:05:00,42.6,41.0,30.18,SSE,164,0.0,6.0,94,0.00,,,0.00,Wunderground v.1.15,2013-10-30 06:05:00,
2013-10-30 02:10:00,42.7,41.1,30.19,SSE,164,0.0,6.0,94,0.00,,,0.00,Wunderground v.1.15,2013-10-30 06:10:00,
2013-10-30 02:15:00,42.7,41.1,30.18,SSE,164,0.0,6.0,94,0.00,,,0.00,Wunderground v.1.15,2013-10-30 06:15:00,
2013-10-30 02:20:00,42.8,41.2,30.18,SSE,164,0.0,6.0,94,0.00,,,0.00,Wunderground v.1.15,2013-10-30 06:20:00,
2013-10-30 02:25:00,42.8,41.2,30.19,SSE,164,0.0,6.0,94,0.00,,,0.00,Wunderground v.1.15,2013-10-30 06:25:00,
2013-10-30 02:30:00,42.8,41.2,30.19,SSE,164,0.0,6.0,94,0.00,,,0.00,Wunderground v.1.15,2013-10-30 06:30:00,
2013-10-30 02:35:00,42.8,41.2,30.18,SSE,164,0.0,6.0,94,0.00,,,0.00,Wunderground v.1.15,2013-10-30 06:35:00,
2013-10-30 02:40:00,42.9,41.3,30.18,SSE,164,0.0,6.0,94,0.00,,,0.00,Wunderground v.1.15,2013-10-30 06:40:00,
2013-10-30 02:45:00,42.9,41.3,30.18,SSE,164,0.0,6.0,94,0.00,,,0.00,Wunderground v.1.15,2013-10-30 06:45:00,
2013-10-30 02:50:00,42.9,41.3,30.17,SSE,164,0.0,6.0,94,0.00,,,0.00,Wunderground v.1.15,2013-10-30 06:50:00,
2013-10-30 02:55:00,43.0,41.4,30.17,SSE,164,0.0,6.0,94,0.00,,,0.00,Wunderground v.1.15,2013-10-30 06:55:00,
2013-10-30 03:05:00,43.1,41.2,30.17,SSE,164,0.0,6.0,93,0.00,,,0.00,Wunderground v.1.15,2013-10-30 07:05:00,
2013-10-30 03:10:00,43.1,41.2,30.17,SSE,164,0.0,6.0,93,0.00,,,0.00,Wunderground v.1.15,2013-10-30 07:10:00,
2013-10-30 03:15:00,43.1,41.2,30.17,SSE,164,0.0,6.0,93,0.00,,,0.00,Wunderground v.1.15,2013-10-30 07:15:00,
2013-10-30 03:25:00,43.2,41.6,30.17,SSE,164,0.0,6.0,94,0.00,,,0.00,Wunderground v.1.15,2013-10-30 07:25:00,
2013-10-30 03:30:00,43.3,41.7,30.17,SSE,164,0.0,6.0,94,0.00,,,0.00,Wunderground v.1.15,2013-10-30 07:30:00,
2013-10-30 03:35:00,43.3,41.7,30.16,SSE,164,0.0,6.0,94,0.00,,,0.00,Wunderground v.1.15,2013-10-30 07:35:00,
2013-10-30 03:40:00,43.3,41.7,30.16,SSE,164,0.0,6.0,94,0.00,,,0.00,Wunderground v.1.15,2013-10-30 07:40:00,
2013-10-30 03:45:00,43.3,41.7,30.15,SSE,164,0.0,6.0,94,0.00,,,0.00,Wunderground v.1.15,2013-10-30 07:45:00,
2013-10-30 03:55:00,43.2,41.6,30.15,SSE,164,0.0,6.0,94,0.00,,,0.00,Wunderground v.1.15,2013-10-30 07:55:00,
2013-10-30 04:00:00,43.3,41.7,30.15,SSE,164,0.0,6.0,94,0.00,,,0.00,Wunderground v.1.15,2013-10-30 08:00:00,
2013-10-30 04:05:00,43.2,41.6,30.15,SSE,164,0.0,6.0,94,0.00,,,0.00,Wunderground v.1.15,2013-10-30 08:05:00,
2013-10-30 04:10:00,43.1,41.2,30.15,SSE,164,0.0,6.0,93,0.00,,,0.00,Wunderground v.1.15,2013-10-30 08:10:00,
2013-10-30 04:20:00,43.1,41.2,30.15,SSE,164,0.0,6.0,93,0.00,,,0.00,Wunderground v.1.15,2013-10-30 08:20:00,
2013-10-30 04:30:00,42.9,41.0,30.14,SSE,164,0.0,6.0,93,0.00,,,0.00,Wunderground v.1.15,2013-10-30 08:30:00,
2013-10-30 04:35:00,42.9,41.0,30.14,SSE,164,0.0,6.0,93,0.00,,,0.00,Wunderground v.1.15,2013-10-30 08:35:00,
2013-10-30 04:40:00,42.9,41.0,30.14,SSE,164,0.0,6.0,93,0.00,,,0.00,Wunderground v.1.15,2013-10-30 08:40:00,
2013-10-30 04:45:00,42.8,41.2,30.14,SSE,164,0.0,6.0,94,0.00,,,0.00,Wunderground v.1.15,2013-10-30 08:45:00,
2013-10-30 04:50:00,42.9,41.3,30.14,SSE,164,0.0,6.0,94,0.00,,,0.00,Wunderground v.1.15,2013-10-30 08:50:00,
2013-10-30 04:55:00,42.9,41.3,30.14,SSE,164,0.0,6.0,94,0.00,,,0.00,Wunderground v.1.15,2013-10-30 08:55:00,
2013-10-30 05:05:00,42.9,41.3,30.14,SSE,164,0.0,6.0,94,0.00,,,0.00,Wunderground v.1.15,2013-10-30 09:05:00,
2013-10-30 05:10:00,42.9,41.3,30.14,SSE,164,0.0,6.0,94,0.00,,,0.00,Wunderground v.1.15,2013-10-30 09:10:00,
2013-10-30 05:15:00,42.9,41.3,30.14,SSE,164,0.0,6.0,94,0.00,,,0.00,Wunderground v.1.15,2013-10-30 09:15:00,
2013-10-30 05:25:00,42.9,41.3,30.14,SSE,164,0.0,6.0,94,0.00,,,0.00,Wunderground v.1.15,2013-10-30 09:25:00,
2013-10-30 05:30:00,42.9,41.3,30.15,SSE,164,0.0,6.0,94,0.00,,,0.00,Wunderground v.1.15,2013-10-30 09:30:00,
2013-10-30 05:40:00,42.9,41.3,30.15,SSE,164,0.0,6.0,94,0.00,,,0.00,Wunderground v.1.15,2013-10-30 09:40:00,
2013-10-30 05:45:00,42.9,41.3,30.15,SSE,164,0.0,6.0,94,0.00,,,0.00,Wunderground v.1.15,2013-10-30 09:45:00,
2013-10-30 05:50:00,42.9,41.3,30.15,SSE,164,0.0,6.0,94,0.00,,,0.00,Wunderground v.1.15,2013-10-30 09:50:00,
2013-10-30 05:55:00,42.9,41.3,30.15,SSE,164,0.0,6.0,94,0.00,,,0.00,Wunderground v.1.15,2013-10-30 09:55:00,
2013-10-30 06:00:00,42.9,41.3,30.15,SSE,164,0.0,6.0,94,0.00,,,0.00,Wunderground v.1.15,2013-10-30 10:00:00,
2013-10-30 06:10:00,42.8,41.2,30.15,SSE,164,0.0,6.0,94,0.00,,,0.00,Wunderground v.1.15,2013-10-30 10:10:00,
2013-10-30 06:15:00,42.7,41.1,30.15,SSE,164,0.0,6.0,94,0.00,,,0.00,Wunderground v.1.15,2013-10-30 10:15:00,
2013-10-30 06:20:00,42.6,41.0,30.15,SSE,164,0.0,6.0,94,0.00,,,0.00,Wunderground v.1.15,2013-10-30 10:20:00,
2013-10-30 06:25:00,42.4,40.8,30.15,SSE,164,0.0,6.0,94,0.00,,,0.00,Wunderground v.1.15,2013-10-30 10:25:00,
2013-10-30 06:35:00,42.0,40.4,30.15,SSE,164,0.0,6.0,94,0.00,,,0.00,Wunderground v.1.15,2013-10-30 10:35:00,
2013-10-30 06:45:00,41.6,39.7,30.16,SSE,164,0.0,6.0,93,0.00,,,0.00,Wunderground v.1.15,2013-10-30 10:45:00,
2013-10-30 06:50:00,41.3,39.4,30.16,SSE,164,0.0,6.0,93,0.00,,,0.00,Wunderground v.1.15,2013-10-30 10:50:00,
2013-10-30 06:55:00,41.1,39.2,30.16,SSE,164,0.0,6.0,93,0.00,,,0.00,Wunderground v.1.15,2013-10-30 10:55:00,
2013-10-30 07:00:00,41.0,39.4,30.16,SSE,164,0.0,6.0,94,0.00,,,0.00,Wunderground v.1.15,2013-10-30 11:00:00,
2013-10-30 07:05:00,40.7,38.8,30.16,SSE,164,0.0,6.0,93,0.00,,,0.00,Wunderground v.1.15,2013-10-30 11:05:00,
2013-10-30 07:10:00,40.5,38.6,30.16,SSE,164,0.0,6.0,93,0.00,,,0.00,Wunderground v.1.15,2013-10-30 11:10:00,
2013-10-30 07:20:00,39.7,37.8,30.16,SSE,164,0.0,6.0,93,0.00,,,0.00,Wunderground v.1.15,2013-10-30 11:20:00,
2013-10-30 07:25:00,39.6,37.7,30.16,SSE,164,0.0,6.0,93,0.00,,,0.00,Wunderground v.1.15,2013-10-30 11:25:00,
2013-10-30 07:35:00,39.6,38.0,30.16,SSE,164,0.0,6.0,94,0.00,,,0.00,Wunderground v.1.15,2013-10-30 11:35:00,
2013-10-30 07:40:00,39.7,38.1,30.16,SSE,164,0.0,6.0,94,0.00,,,0.00,Wunderground v.1.15,2013-10-30 11:40:00,
2013-10-30 07:45:00,40.0,38.7,30.16,SSE,164,0.0,6.0,95,0.00,,,0.00,Wunderground v.1.15,2013-10-30 11:45:00,
2013-10-30 07:55:00,40.3,39.0,30.17,SSE,164,0.0,6.0,95,0.00,,,0.00,Wunderground v.1.15,2013-10-30 11:55:00,
2013-10-30 08:00:00,40.6,39.3,30.16,SSE,164,0.0,6.0,95,0.00,,,0.00,Wunderground v.1.15,2013-10-30 12:00:00,
2013-10-30 08:05:00,40.8,39.5,30.16,SSE,164,0.0,6.0,95,0.00,,,0.00,Wunderground v.1.15,2013-10-30 12:05:00,
2013-10-30 08:10:00,41.0,39.7,30.16,SSE,164,0.0,6.0,95,0.00,,,0.00,Wunderground v.1.15,2013-10-30 12:10:00,
2013-10-30 08:15:00,41.0,39.7,30.16,SSE,164,0.0,6.0,95,0.00,,,0.00,Wunderground v.1.15,2013-10-30 12:15:00,
2013-10-30 08:25:00,41.5,40.4,30.16,SSE,164,0.0,6.0,96,0.00,,,0.00,Wunderground v.1.15,2013-10-30 12:25:00,
2013-10-30 08:30:00,41.7,40.6,30.17,SSE,164,0.0,6.0,96,0.00,,,0.00,Wunderground v.1.15,2013-10-30 12:30:00,
2013-10-30 08:35:00,41.9,40.8,30.16,SSE,164,0.0,6.0,96,0.00,,,0.00,Wunderground v.1.15,2013-10-30 12:35:00,
2013-10-30 08:45:00,42.4,41.3,30.16,SSE,164,0.0,6.0,96,0.00,,,0.00,Wunderground v.1.15,2013-10-30 12:45:00,
2013-10-30 08:50:00,42.6,41.5,30.16,SSE,164,0.0,6.0,96,0.00,,,0.00,Wunderground v.1.15,2013-10-30 12:50:00,
2013-10-30 09:00:00,43.2,42.1,30.17,SSE,164,0.0,6.0,96,0.00,,,0.00,Wunderground v.1.15,2013-10-30 13:00:00,
2013-10-30 09:05:00,43.5,42.4,30.17,SSE,164,0.0,6.0,96,0.00,,,0.00,Wunderground v.1.15,2013-10-30 13:05:00,
2013-10-30 09:10:00,43.7,42.6,30.17,SSE,164,0.0,6.0,96,0.00,,,0.00,Wunderground v.1.15,2013-10-30 13:10:00,
2013-10-30 09:15:00,44.0,42.9,30.17,SSE,164,0.0,6.0,96,0.00,,,0.00,Wunderground v.1.15,2013-10-30 13:15:00,
2013-10-30 09:20:00,44.3,43.2,30.18,SSE,164,0.0,6.0,96,0.00,,,0.00,Wunderground v.1.15,2013-10-30 13:20:00,
2013-10-30 09:25:00,44.7,43.4,30.17,SSE,164,0.0,6.0,95,0.00,,,0.00,Wunderground v.1.15,2013-10-30 13:25:00,
2013-10-30 09:35:00,45.4,44.1,30.17,SSE,164,0.0,6.0,95,0.00,,,0.00,Wunderground v.1.15,2013-10-30 13:35:00,
2013-10-30 09:45:00,46.1,44.2,30.17,SSE,164,0.0,6.0,93,0.00,,,0.00,Wunderground v.1.15,2013-10-30 13:45:00,
2013-10-30 09:50:00,46.6,44.7,30.18,SSE,164,0.0,6.0,93,0.00,,,0.00,Wunderground v.1.15,2013-10-30 13:50:00,
2013-10-30 09:55:00,47.1,44.9,30.17,SSE,164,0.0,6.0,92,0.00,,,0.00,Wunderground v.1.15,2013-10-30 13:55:00,
2013-10-30 10:00:00,47.5,45.0,30.17,SSE,164,0.0,6.0,91,0.00,,,0.00,Wunderground v.1.15,2013-10-30 14:00:00,
2013-10-30 10:05:00,47.8,45.0,30.18,SSE,164,0.0,6.0,90,0.00,,,0.00,Wunderground v.1.15,2013-10-30 14:05:00,
2013-10-30 10:10:00,48.1,45.3,30.18,SSE,164,0.0,6.0,90,0.00,,,0.00,Wunderground v.1.15,2013-10-30 14:10:00,
2013-10-30 10:15:00,49.0,46.2,30.18,SSE,164,0.0,6.0,90,0.00,,,0.00,Wunderground v.1.15,2013-10-30 14:15:00,
2013-10-30 10:20:00,49.9,46.8,30.18,SSE,164,0.0,6.0,89,0.00,,,0.00,Wunderground v.1.15,2013-10-30 14:20:00,
2013-10-30 10:30:00,51.2,46.5,30.18,SSE,164,0.0,6.0,84,0.00,,,0.00,Wunderground v.1.15,2013-10-30 14:30:00,
2013-10-30 10:35:00,51.7,46.7,30.18,SSE,164,0.0,6.0,83,0.00,,,0.00,Wunderground v.1.15,2013-10-30 14:35:00,
2013-10-30 10:45:00,52.9,47.2,30.18,SSE,164,0.0,6.0,81,0.00,,,0.00,Wunderground v.1.15,2013-10-30 14:45:00,
2013-10-30 10:50:00,53.6,47.2,30.18,SSE,164,0.0,6.0,79,0.00,,,0.00,Wunderground v.1.15,2013-10-30 14:50:00,
2013-10-30 10:55:00,54.2,47.5,30.18,SSE,164,0.0,6.0,78,0.00,,,0.00,Wunderground v.1.15,2013-10-30 14:55:00,
2013-10-30 11:00:00,54.9,47.5,30.18,SSE,164,0.0,6.0,76,0.00,,,0.00,Wunderground v.1.15,2013-10-30 15:00:00,
2013-10-30 11:05:00,55.3,46.1,30.17,SSE,164,0.0,6.0,71,0.00,,,0.00,Wunderground v.1.15,2013-10-30 15:05:00,
2013-10-30 11:15:00,56.3,45.9,30.17,SSE,164,0.0,6.0,68,0.00,,,0.00,Wunderground v.1.15,2013-10-30 15:15:00,
2013-10-30 11:20:00,56.7,46.3,30.17,SE,132,0.0,6.0,68,0.00,,,0.00,Wunderground v.1.15,2013-10-30 15:20:00,
2013-10-30 11:25:00,57.5,46.6,30.17,SE,132,0.0,6.0,67,0.00,,,0.00,Wunderground v.1.15,2013-10-30 15:25:00,
2013-10-30 11:30:00,58.9,47.6,30.16,SE,132,0.0,6.0,66,0.00,,,0.00,Wunderground v.1.15,2013-10-30 15:30:00,
2013-10-30 11:40:00,61.1,48.4,30.16,SE,132,0.0,6.0,63,0.00,,,0.00,Wunderground v.1.15,2013-10-30 15:40:00,
2013-10-30 11:50:00,62.2,49.4,30.16,SE,132,0.0,6.0,63,0.00,,,0.00,Wunderground v.1.15,2013-10-30 15:50:00,
2013-10-30 11:55:00,61.9,49.2,30.16,SE,132,0.0,6.0,63,0.00,,,0.00,Wunderground v.1.15,2013-10-30 15:55:00,
2013-10-30 12:00:00,61.9,50.0,30.16,SE,142,0.0,6.0,65,0.00,,,0.00,Wunderground v.1.15,2013-10-30 16:00:00,
2013-10-30 12:05:00,62.5,51.4,30.16,SW,236,0.0,6.0,67,0.00,,,0.00,Wunderground v.1.15,2013-10-30 16:05:00,
2013-10-30 12:10:00,63.2,50.8,30.16,SW,236,0.0,6.0,64,0.00,,,0.00,Wunderground v.1.15,2013-10-30 16:10:00,
2013-10-30 12:15:00,64.0,51.1,30.16,WNW,288,0.0,6.0,63,0.00,,,0.00,Wunderground v.1.15,2013-10-30 16:15:00,
2013-10-30 12:25:00,65.4,51.6,30.15,NW,324,0.0,6.0,61,0.00,,,0.00,Wunderground v.1.15,2013-10-30 16:25:00,
2013-10-30 12:30:00,65.2,52.7,30.15,North,5,0.0,6.0,64,0.00,,,0.00,Wunderground v.1.15,2013-10-30 16:30:00,
2013-10-30 12:35:00,65.0,52.9,30.15,NE,34,0.0,6.0,65,0.00,,,0.00,Wunderground v.1.15,2013-10-30 16:35:00,
2013-10-30 12:45:00,65.0,54.6,30.14,SSE,161,0.0,6.0,69,0.00,,,0.00,Wunderground v.1.15,2013-10-30 16:45:00,
2013-10-30 12:50:00,65.1,53.5,30.14,SSE,151,0.0,6.0,66,0.00,,,0.00,Wunderground v.1.15,2013-10-30 16:50:00,
2013-10-30 13:00:00,66.0,53.9,30.14,South,180,0.0,6.0,65,0.00,,,0.00,Wunderground v.1.15,2013-10-30 17:00:00,
2013-10-30 13:05:00,65.2,53.1,30.14,South,169,1.0,6.0,65,0.00,,,0.00,Wunderground v.1.15,2013-10-30 17:05:00,
2013-10-30 13:10:00,64.5,52.5,30.13,SE,140,1.0,6.0,65,0.00,,,0.00,Wunderground v.1.15,2013-10-30 17:10:00,
2013-10-30 13:15:00,64.2,51.8,30.13,South,181,1.0,6.0,64,0.00,,,0.00,Wunderground v.1.15,2013-10-30 17:15:00,
2013-10-30 13:20:00,64.1,52.1,30.13,South,173,1.0,1.0,65,0.00,,,0.00,Wunderground v.1.15,2013-10-30 17:20:00,
2013-10-30 13:25:00,64.3,53.1,30.12,SSE,150,0.0,6.0,67,0.00,,,0.00,Wunderground v.1.15,2013-10-30 17:25:00,
2013-10-30 13:30:00,64.7,54.3,30.12,SW,219,1.0,1.0,69,0.00,,,0.00,Wunderground v.1.15,2013-10-30 17:30:00,
2013-10-30 13:35:00,64.6,53.4,30.12,SSW,198,1.0,6.0,67,0.00,,,0.00,Wunderground v.1.15,2013-10-30 17:35:00,
2013-10-30 13:40:00,64.4,52.8,30.12,South,184,1.0,1.0,66,0.00,,,0.00,Wunderground v.1.15,2013-10-30 17:40:00,
2013-10-30 13:45:00,64.6,54.2,30.12,SSE,161,0.0,6.0,69,0.00,,,0.00,Wunderground v.1.15,2013-10-30 17:45:00,
2013-10-30 13:55:00,65.7,54.4,30.11,SSE,166,1.0,6.0,67,0.00,,,0.00,Wunderground v.1.15,2013-10-30 17:55:00,
2013-10-30 14:05:00,66.2,54.5,30.10,SSE,153,1.0,6.0,66,0.00,,,0.00,Wunderground v.1.15,2013-10-30 18:05:00,
2013-10-30 14:10:00,66.4,54.7,30.10,SE,140,2.0,2.0,66,0.00,,,0.00,Wunderground v.1.15,2013-10-30 18:10:00,
2013-10-30 14:15:00,66.9,54.3,30.10,South,189,1.0,6.0,64,0.00,,,0.00,Wunderground v.1.15,2013-10-30 18:15:00,
2013-10-30 14:20:00,66.1,53.6,30.10,South,172,1.0,6.0,64,0.00,,,0.00,Wunderground v.1.15,2013-10-30 18:20:00,
2013-10-30 14:25:00,65.9,54.6,30.09,South,187,1.0,6.0,67,0.00,,,0.00,Wunderground v.1.15,2013-10-30 18:25:00,
2013-10-30 14:30:00,66.5,54.8,30.09,SSE,165,0.0,6.0,66,0.00,,,0.00,Wunderground v.1.15,2013-10-30 18:30:00,
2013-10-30 14:35:00,66.8,54.7,30.09,SW,218,0.0,6.0,65,0.00,,,0.00,Wunderground v.1.15,2013-10-30 18:35:00,
2013-10-30 14:40:00,66.1,53.1,30.09,SSE,167,1.0,1.0,63,0.00,,,0.00,Wunderground v.1.15,2013-10-30 18:40:00,
2013-10-30 14:45:00,64.9,52.8,30.09,South,176,1.0,6.0,65,0.00,,,0.00,Wunderground v.1.15,2013-10-30 18:45:00,
2013-10-30 14:50:00,64.6,52.6,30.09,South,176,1.0,1.0,65,0.00,,,0.00,Wunderground v.1.15,2013-10-30 18:50:00,
2013-10-30 14:55:00,63.9,53.1,30.09,SSE,156,0.0,6.0,68,0.00,,,0.00,Wunderground v.1.15,2013-10-30 18:55:00,
2013-10-30 15:00:00,63.8,53.8,30.08,SSE,156,0.0,6.0,70,0.00,,,0.00,Wunderground v.1.15,2013-10-30 19:00:00,
2013-10-30 15:10:00,64.1,53.3,30.08,SE,126,0.0,6.0,68,0.00,,,0.00,Wunderground v.1.15,2013-10-30 19:10:00,
2013-10-30 15:20:00,65.5,54.2,30.07,South,171,2.0,2.0,67,0.00,,,0.00,Wunderground v.1.15,2013-10-30 19:20:00,
2013-10-30 15:25:00,65.5,53.8,30.07,SSE,165,2.0,4.0,66,0.00,,,0.00,Wunderground v.1.15,2013-10-30 19:25:00,
2013-10-30 15:30:00,64.7,53.1,30.07,SE,139,2.0,6.0,66,0.00,,,0.00,Wunderground v.1.15,2013-10-30 19:30:00,
2013-10-30 15:35:00,64.0,53.2,30.07,SSE,153,2.0,6.0,68,0.00,,,0.00,Wunderground v.1.15,2013-10-30 19:35:00,
2013-10-30 15:45:00,64.3,53.5,30.06,SW,215,0.0,6.0,68,0.00,,,0.00,Wunderground v.1.15,2013-10-30 19:45:00,
2013-10-30 15:50:00,64.1,53.7,30.06,SW,225,0.0,6.0,69,0.00,,,0.00,Wunderground v.1.15,2013-10-30 19:50:00,
2013-10-30 15:55:00,64.2,53.4,30.07,South,172,0.0,6.0,68,0.00,,,0.00,Wunderground v.1.15,2013-10-30 19:55:00,
2013-10-30 16:00:00,64.1,53.3,30.07,SSW,213,1.0,1.0,68,0.00,,,0.00,Wunderground v.1.15,2013-10-30 20:00:00,
2013-10-30 16:05:00,64.2,54.2,30.06,South,169,1.0,6.0,70,0.00,,,0.00,Wunderground v.1.15,2013-10-30 20:05:00,
2013-10-30 16:15:00,64.2,53.8,30.06,South,176,3.0,7.0,69,0.00,,,0.00,Wunderground v.1.15,2013-10-30 20:15:00,
2013-10-30 16:25:00,63.7,53.3,30.07,South,189,1.0,5.0,69,0.00,,,0.00,Wunderground v.1.15,2013-10-30 20:25:00,
2013-10-30 16:30:00,63.2,52.9,30.07,South,173,1.0,1.0,69,0.00,,,0.00,Wunderground v.1.15,2013-10-30 20:30:00,
2013-10-30 16:35:00,63.0,53.4,30.07,SE,132,1.0,6.0,71,0.00,,,0.00,Wunderground v.1.15,2013-10-30 20:35:00,
2013-10-30 16:40:00,63.1,53.9,30.07,South,175,1.0,1.0,72,0.00,,,0.00,Wunderground v.1.15,2013-10-30 20:40:00,
2013-10-30 16:45:00,63.4,53.4,30.06,ESE,113,1.0,2.0,70,0.00,,,0.00,Wunderground v.1.15,2013-10-30 20:45:00,
2013-10-30 16:55:00,63.5,53.5,30.07,South,178,1.0,6.0,70,0.00,,,0.00,Wunderground v.1.15,2013-10-30 20:55:00,
2013-10-30 17:00:00,63.2,53.3,30.07,South,182,1.0,6.0,70,0.00,,,0.00,Wunderground v.1.15,2013-10-30 21:00:00,
2013-10-30 17:05:00,62.9,53.4,30.07,SE,128,0.0,6.0,71,0.00,,,0.00,Wunderground v.1.15,2013-10-30 21:05:00,
2013-10-30 17:10:00,62.7,53.2,30.07,SE,128,0.0,6.0,71,0.00,,,0.00,Wunderground v.1.15,2013-10-30 21:10:00,
2013-10-30 17:20:00,62.4,53.3,30.07,SE,128,0.0,6.0,72,0.00,,,0.00,Wunderground v.1.15,2013-10-30 21:20:00,
2013-10-30 17:30:00,62.2,53.4,30.07,SSE,165,0.0,6.0,73,0.00,,,0.00,Wunderground v.1.15,2013-10-30 21:30:00,
2013-10-30 17:35:00,62.2,53.4,30.07,SSE,165,0.0,6.0,73,0.00,,,0.00,Wunderground v.1.15,2013-10-30 21:35:00,
2013-10-30 17:40:00,62.1,53.3,30.07,SSE,165,0.0,6.0,73,0.00,,,0.00,Wunderground v.1.15,2013-10-30 21:40:00,
2013-10-30 17:45:00,62.0,53.6,30.07,SSE,165,0.0,6.0,74,0.00,,,0.00,Wunderground v.1.15,2013-10-30 21:45:00,
2013-10-30 17:50:00,62.0,54.0,30.07,SSE,165,0.0,6.0,75,0.00,,,0.00,Wunderground v.1.15,2013-10-30 21:50:00,
2013-10-30 18:00:00,61.7,53.7,30.07,SSE,165,0.0,6.0,75,0.00,,,0.00,Wunderground v.1.15,2013-10-30 22:00:00,
2013-10-30 18:05:00,61.6,54.0,30.07,SSE,165,0.0,6.0,76,0.00,,,0.00,Wunderground v.1.15,2013-10-30 22:05:00,
2013-10-30 18:10:00,61.4,53.8,30.07,SSE,165,0.0,6.0,76,0.00,,,0.00,Wunderground v.1.15,2013-10-30 22:10:00,
2013-10-30 18:15:00,61.2,53.9,30.07,SSE,165,0.0,6.0,77,0.00,,,0.00,Wunderground v.1.15,2013-10-30 22:15:00,
2013-10-30 18:20:00,61.1,53.5,30.07,SSW,199,0.0,6.0,76,0.00,,,0.00,Wunderground v.1.15,2013-10-30 22:20:00,
2013-10-30 18:25:00,60.8,53.5,30.07,SSW,199,0.0,6.0,77,0.00,,,0.00,Wunderground v.1.15,2013-10-30 22:25:00,
2013-10-30 18:35:00,60.2,53.3,30.07,SSW,199,0.0,6.0,78,0.00,,,0.00,Wunderground v.1.15,2013-10-30 22:35:00,
2013-10-30 18:45:00,59.5,53.0,30.08,South,185,0.0,6.0,79,0.00,,,0.00,Wunderground v.1.15,2013-10-30 22:45:00,
2013-10-30 18:50:00,59.4,53.2,30.07,South,175,1.0,1.0,80,0.00,,,0.00,Wunderground v.1.15,2013-10-30 22:50:00,
2013-10-30 18:55:00,59.3,53.1,30.07,South,171,1.0,2.0,80,0.00,,,0.00,Wunderground v.1.15,2013-10-30 22:55:00,
2013-10-30 19:00:00,59.3,53.5,30.08,SSW,205,1.0,6.0,81,0.00,,,0.00,Wunderground v.1.15,2013-10-30 23:00:00,
2013-10-30 19:10:00,59.2,53.7,30.08,South,182,1.0,1.0,82,0.00,,,0.00,Wunderground v.1.15,2013-10-30 23:10:00,
2013-10-30 19:15:00,59.1,53.6,30.08,SSE,162,1.0,6.0,82,0.00,,,0.00,Wunderground v.1.15,2013-10-30 23:15:00,
2013-10-30 19:20:00,58.9,53.4,30.08,South,171,0.0,6.0,82,0.00,,,0.00,Wunderground v.1.15,2013-10-30 23:20:00,
2013-10-30 19:25:00,58.4,52.9,30.07,South,171,0.0,6.0,82,0.00,,,0.00,Wunderground v.1.15,2013-10-30 23:25:00,
2013-10-30 19:30:00,58.0,52.9,30.07,South,171,0.0,6.0,83,0.00,,,0.00,Wunderground v.1.15,2013-10-30 23:30:00,
2013-10-30 19:40:00,57.6,52.8,30.07,South,175,0.0,6.0,84,0.00,,,0.00,Wunderground v.1.15,2013-10-30 23:40:00,
2013-10-30 19:50:00,57.5,53.0,30.07,SSW,198,0.0,6.0,85,0.00,,,0.00,Wunderground v.1.15,2013-10-30 23:50:00,
2013-10-30 19:55:00,57.5,53.0,30.07,SSW,198,0.0,6.0,85,0.00,,,0.00,Wunderground v.1.15,2013-10-30 23:55:00,
2013-10-30 20:00:00,57.3,52.8,30.06,SSW,198,0.0,6.0,85,0.00,,,0.00,Wunderground v.1.15,2013-10-31 00:00:00,
2013-10-30 20:05:00,57.0,52.9,30.07,SSW,198,0.0,6.0,86,0.00,,,0.00,Wunderground v.1.15,2013-10-31 00:05:00,
2013-10-30 20:15:00,56.9,53.1,30.07,South,186,0.0,6.0,87,0.00,,,0.00,Wunderground v.1.15,2013-10-31 00:15:00,
2013-10-30 20:20:00,56.8,53.0,30.07,South,186,0.0,6.0,87,0.00,,,0.00,Wunderground v.1.15,2013-10-31 00:20:00,
2013-10-30 20:25:00,56.6,52.8,30.07,South,186,0.0,6.0,87,0.00,,,0.00,Wunderground v.1.15,2013-10-31 00:25:00,
2013-10-30 20:30:00,56.4,52.6,30.07,South,185,0.0,6.0,87,0.00,,,0.00,Wunderground v.1.15,2013-10-31 00:30:00,
2013-10-30 20:35:00,56.1,52.3,30.08,South,186,0.0,6.0,87,0.00,,,0.00,Wunderground v.1.15,2013-10-31 00:35:00,
2013-10-30 20:40:00,55.8,52.0,30.07,South,186,0.0,6.0,87,0.00,,,0.00,Wunderground v.1.15,2013-10-31 00:40:00,
2013-10-30 20:50:00,55.7,52.5,30.07,South,186,0.0,6.0,89,0.00,,,0.00,Wunderground v.1.15,2013-10-31 00:50:00,
2013-10-30 21:00:00,56.4,53.5,30.08,South,183,0.0,6.0,90,0.00,,,0.00,Wunderground v.1.15,2013-10-31 01:00:00,
2013-10-30 21:05:00,56.8,53.9,30.08,South,183,0.0,6.0,90,0.00,,,0.00,Wunderground v.1.15,2013-10-31 01:05:00,
2013-10-30 21:10:00,57.1,54.2,30.08,South,183,0.0,6.0,90,0.00,,,0.00,Wunderground v.1.15,2013-10-31 01:10:00,
2013-10-30 21:15:00,57.4,54.5,30.08,SSW,195,0.0,6.0,90,0.00,,,0.00,Wunderground v.1.15,2013-10-31 01:15:00,
2013-10-30 21:25:00,58.0,55.1,30.07,South,183,1.0,6.0,90,0.00,,,0.00,Wunderground v.1.15,2013-10-31 01:25:00,
2013-10-30 21:30:00,58.2,55.3,30.07,South,183,1.0,1.0,90,0.00,,,0.00,Wunderground v.1.15,2013-10-31 01:30:00,
2013-10-30 21:35:00,58.4,55.2,30.07,South,187,0.0,6.0,89,0.00,,,0.00,Wunderground v.1.15,2013-10-31 01:35:00,
2013-10-30 21:40:00,58.5,55.3,30.07,SSE,165,0.0,6.0,89,0.00,,,0.00,Wunderground v.1.15,2013-10-31 01:40:00,
2013-10-30 21:45:00,58.6,55.4,30.07,SSW,194,0.0,6.0,89,0.00,,,0.00,Wunderground v.1.15,2013-10-31 01:45:00,
2013-10-30 21:55:00,58.7,55.5,30.06,SSW,193,0.0,6.0,89,0.00,,,0.00,Wunderground v.1.15,2013-10-31 01:55:00,
2013-10-30 22:00:00,58.7,55.8,30.06,South,179,1.0,1.0,90,0.00,,,0.00,Wunderground v.1.15,2013-10-31 02:00:00,
2013-10-30 22:10:00,58.8,55.9,30.06,South,189,0.0,6.0,90,0.00,,,0.00,Wunderground v.1.15,2013-10-31 02:10:00,
2013-10-30 22:15:00,58.8,55.9,30.06,South,189,0.0,6.0,90,0.00,,,0.00,Wunderground v.1.15,2013-10-31 02:15:00,
2013-10-30 22:20:00,58.8,55.9,30.05,South,189,0.0,6.0,90,0.00,,,0.00,Wunderground v.1.15,2013-10-31 02:20:00,
2013-10-30 22:25:00,58.7,55.8,30.05,South,189,0.0,6.0,90,0.00,,,0.00,Wunderground v.1.15,2013-10-31 02:25:00,
2013-10-30 22:30:00,58.7,55.8,30.05,South,173,0.0,6.0,90,0.00,,,0.00,Wunderground v.1.15,2013-10-31 02:30:00,
2013-10-30 22:35:00,58.6,55.7,30.05,South,173,0.0,6.0,90,0.00,,,0.00,Wunderground v.1.15,2013-10-31 02:35:00,
2013-10-30 22:40:00,58.6,55.7,30.05,South,173,0.0,6.0,90,0.00,,,0.00,Wunderground v.1.15,2013-10-31 02:40:00,
2013-10-30 22:45:00,58.6,56.0,30.05,South,190,0.0,6.0,91,0.00,,,0.00,Wunderground v.1.15,2013-10-31 02:45:00,
2013-10-30 22:50:00,58.6,56.0,30.05,SSW,192,1.0,6.0,91,0.00,,,0.00,Wunderground v.1.15,2013-10-31 02:50:00,
2013-10-30 22:55:00,58.7,56.1,30.05,South,171,1.0,6.0,91,0.00,,,0.00,Wunderground v.1.15,2013-10-31 02:55:00,
2013-10-30 23:05:00,58.7,56.1,30.04,South,174,0.0,6.0,91,0.00,,,0.00,Wunderground v.1.15,2013-10-31 03:05:00,
2013-10-30 23:10:00,58.7,56.1,30.04,SSE,167,1.0,1.0,91,0.00,,,0.00,Wunderground v.1.15,2013-10-31 03:10:00,
2013-10-30 23:20:00,58.8,56.2,30.03,South,186,0.0,6.0,91,0.00,,,0.00,Wunderground v.1.15,2013-10-31 03:20:00,
2013-10-30 23:25:00,58.8,56.2,30.03,SSW,193,0.0,6.0,91,0.00,,,0.00,Wunderground v.1.15,2013-10-31 03:25:00,
2013-10-30 23:30:00,58.8,56.2,30.02,South,175,1.0,1.0,91,0.00,,,0.00,Wunderground v.1.15,2013-10-31 03:30:00,
2013-10-30 23:35:00,58.8,56.2,30.02,South,184,1.0,6.0,91,0.00,,,0.00,Wunderground v.1.15,2013-10-31 03:35:00,
2013-10-30 23:40:00,58.8,56.5,30.02,South,177,1.0,1.0,92,0.00,,,0.00,Wunderground v.1.15,2013-10-31 03:40:00,
2013-10-30 23:45:00,58.8,56.5,30.02,South,186,1.0,6.0,92,0.00,,,0.00,Wunderground v.1.15,2013-10-31 03:45:00,
2013-10-30 23:50:00,58.9,56.6,30.01,South,173,1.0,1.0,92,0.00,,,0.00,Wunderground v.1.15,2013-10-31 03:50:00,
2013-10-30 23:55:00,58.9,56.6,30.01,South,188,1.0,4.0,92,0.00,,,0.00,Wunderground v.1.15,2013-10-31 03:55:00,